Time;durP1;ratioP1;P1;durP2;ratioP2;P2;SDS_P1;SDS_P2;PMS_P1;PMS_P2;Temp;Humidity;BMP_temperature;BMP_pressure;BME280_temperature;BME280_humidity;BME280_pressure;Samples;Min_cycle;Max_cycle;Signal;HPM_P1;HPM_P2
2023/07/27 00:02:06;;;;;;;2.70;1.50;;;15.00;99.90;;;;;;5054805;28;20071;-62
2023/07/27 00:04:32;;;;;;;1.88;1.67;;;15.00;99.90;;;;;;5055403;28;20056;-62
2023/07/27 00:06:58;;;;;;;2.30;1.83;;;14.90;99.90;;;;;;5055198;28;20059;-63
2023/07/27 00:09:24;;;;;;;2.10;1.70;;;15.00;99.90;;;;;;5059036;28;20435;-62
2023/07/27 00:11:50;;;;;;;2.33;1.58;;;14.90;99.90;;;;;;5053295;28;20045;-62
2023/07/27 00:14:16;;;;;;;1.67;1.40;;;14.90;99.90;;;;;;5054863;28;20040;-62
2023/07/27 00:16:41;;;;;;;3.00;1.42;;;14.90;99.90;;;;;;5055129;28;20062;-62
2023/07/27 00:19:07;;;;;;;1.58;1.48;;;14.90;99.90;;;;;;5054773;28;20078;-62
2023/07/27 00:21:34;;;;;;;2.00;1.80;;;14.80;99.90;;;;;;5054778;28;20024;-63
2023/07/27 00:24:00;;;;;;;3.45;1.85;;;14.80;99.90;;;;;;5054459;28;20035;-63
2023/07/27 00:26:26;;;;;;;2.47;1.75;;;14.80;99.90;;;;;;5054970;28;20036;-62
2023/07/27 00:28:52;;;;;;;2.72;1.58;;;14.70;99.90;;;;;;5036595;28;20037;-62
2023/07/27 00:31:17;;;;;;;1.70;1.60;;;14.70;99.90;;;;;;5034588;28;20087;-62
2023/07/27 00:33:44;;;;;;;2.42;1.65;;;14.70;99.90;;;;;;5053550;28;20045;-62
2023/07/27 00:36:10;;;;;;;4.13;1.90;;;14.70;99.90;;;;;;5054724;28;20040;-63
2023/07/27 00:38:36;;;;;;;2.47;1.50;;;14.70;99.90;;;;;;5032345;28;20132;-62
2023/07/27 00:41:02;;;;;;;2.38;1.67;;;14.60;99.90;;;;;;5053474;28;20025;-62
2023/07/27 00:43:28;;;;;;;2.65;1.80;;;14.70;99.90;;;;;;5036326;28;20043;-62
2023/07/27 00:45:55;;;;;;;2.08;1.67;;;14.70;99.90;;;;;;5036691;28;20024;-62
2023/07/27 00:48:21;;;;;;;2.05;1.83;;;14.60;99.90;;;;;;5034712;28;20040;-62
2023/07/27 00:50:48;;;;;;;2.50;1.70;;;14.60;99.90;;;;;;5054441;28;20120;-62
2023/07/27 00:53:15;;;;;;;1.88;1.65;;;14.60;99.90;;;;;;5036502;28;20032;-62
2023/07/27 00:55:42;;;;;;;1.75;1.63;;;14.50;99.90;;;;;;5053829;28;20602;-62
2023/07/27 00:58:09;;;;;;;3.38;1.88;;;14.50;99.90;;;;;;5038140;28;20556;-62
2023/07/27 01:00:35;;;;;;;1.75;1.50;;;14.50;99.90;;;;;;5035077;28;20532;-62
2023/07/27 01:03:03;;;;;;;2.20;1.80;;;14.50;99.90;;;;;;5055077;28;20119;-62
2023/07/27 01:05:29;;;;;;;2.63;1.90;;;14.50;99.90;;;;;;5053181;28;20037;-62
2023/07/27 01:07:55;;;;;;;3.20;2.10;;;14.40;99.90;;;;;;5052261;28;20040;-62
2023/07/27 01:10:32;;;;;;;2.05;1.88;;;14.40;99.90;;;;;;5037287;28;20062;-62
2023/07/27 01:13:12;;;;;;;3.22;1.75;;;14.40;99.90;;;;;;5022682;28;20044;-62
2023/07/27 01:15:43;;;;;;;3.95;2.00;;;14.40;99.90;;;;;;5035401;28;20036;-62
2023/07/27 01:18:25;;;;;;;3.28;2.20;;;14.40;99.90;;;;;;5055729;28;20215;-62
2023/07/27 01:21:12;;;;;;;2.42;1.90;;;14.30;99.90;;;;;;5020662;28;20118;-62
2023/07/27 01:24:02;;;;;;;2.60;1.73;;;14.30;99.90;;;;;;5049320;28;20086;-62
2023/07/27 01:26:40;;;;;;;2.17;1.80;;;14.30;99.90;;;;;;5037519;28;20037;-62
2023/07/27 01:29:31;;;;;;;2.40;2.00;;;14.30;99.90;;;;;;5032454;28;20033;-62
2023/07/27 01:31:57;;;;;;;2.22;1.88;;;14.20;99.90;;;;;;5052067;28;20032;-62
2023/07/27 01:34:29;;;;;;;2.38;1.95;;;14.20;99.90;;;;;;5055893;28;20584;-62
2023/07/27 01:37:01;;;;;;;3.53;2.20;;;14.20;99.90;;;;;;5053934;28;20086;-62
2023/07/27 01:39:30;;;;;;;3.00;2.00;;;14.20;99.90;;;;;;5053483;28;20032;-62
2023/07/27 01:41:56;;;;;;;2.58;1.98;;;14.20;99.90;;;;;;5051780;28;20061;-62
2023/07/27 01:44:28;;;;;;;2.33;1.80;;;14.20;99.90;;;;;;5036703;28;20052;-62
2023/07/27 01:46:55;;;;;;;4.72;2.10;;;14.20;99.90;;;;;;5037287;28;20327;-62
2023/07/27 01:49:23;;;;;;;4.85;1.95;;;14.20;99.90;;;;;;5053875;28;20147;-62
2023/07/27 01:51:50;;;;;;;3.65;2.22;;;14.20;99.90;;;;;;5053905;28;20123;-63
2023/07/27 01:54:16;;;;;;;2.67;1.73;;;14.10;99.90;;;;;;5059110;28;20031;-62
2023/07/27 01:56:44;;;;;;;2.40;2.20;;;14.10;99.90;;;;;;5037935;28;20520;-63
2023/07/27 01:59:10;;;;;;;3.25;2.50;;;14.10;99.90;;;;;;5037461;28;20029;-62
2023/07/27 02:01:37;;;;;;;2.85;2.55;;;14.10;99.90;;;;;;5040646;28;20028;-62
2023/07/27 02:04:04;;;;;;;3.38;2.05;;;14.10;99.90;;;;;;5035208;28;20021;-62
2023/07/27 02:06:30;;;;;;;3.83;2.00;;;14.10;99.90;;;;;;5057993;28;20040;-62
2023/07/27 02:08:56;;;;;;;3.92;2.50;;;14.10;99.90;;;;;;5038078;28;20051;-62
2023/07/27 02:11:23;;;;;;;3.33;2.65;;;14.10;99.90;;;;;;5058290;28;20037;-62
2023/07/27 02:14:06;;;;;;;2.33;2.13;;;14.10;99.90;;;;;;5055842;28;20028;-62
2023/07/27 02:16:34;;;;;;;2.65;2.42;;;14.10;99.90;;;;;;5037688;28;20507;-62
2023/07/27 02:19:01;;;;;;;2.70;2.50;;;14.10;99.90;;;;;;5037423;28;20513;-62
2023/07/27 02:21:29;;;;;;;3.63;2.28;;;14.10;99.90;;;;;;5052339;28;20480;-62
2023/07/27 02:23:55;;;;;;;4.05;2.65;;;14.10;99.90;;;;;;5054917;28;20040;-62
2023/07/27 02:26:21;;;;;;;4.00;2.42;;;14.10;99.90;;;;;;5040520;28;20563;-62
2023/07/27 02:28:47;;;;;;;2.80;2.15;;;14.10;99.90;;;;;;5055337;28;20122;-62
2023/07/27 02:31:13;;;;;;;3.10;2.47;;;14.10;99.90;;;;;;5040406;28;20062;-62
2023/07/27 02:33:39;;;;;;;2.60;2.38;;;14.10;99.90;;;;;;5036337;28;20029;-62
2023/07/27 02:36:05;;;;;;;4.60;2.60;;;14.10;99.90;;;;;;5047485;28;20037;-62
2023/07/27 02:38:33;;;;;;;4.15;2.60;;;14.10;99.90;;;;;;5039892;28;20443;-62
2023/07/27 02:40:59;;;;;;;3.65;2.47;;;14.10;99.90;;;;;;5055177;28;20035;-62
2023/07/27 02:43:24;;;;;;;2.75;2.30;;;14.10;99.90;;;;;;5040109;28;20750;-62
2023/07/27 02:45:57;;;;;;;2.58;2.20;;;14.10;99.90;;;;;;5037195;28;20123;-62
2023/07/27 02:48:23;;;;;;;4.07;2.70;;;14.10;99.90;;;;;;5038994;28;20085;-62
2023/07/27 02:50:50;;;;;;;4.53;2.50;;;14.10;99.90;;;;;;5056287;28;20036;-62
2023/07/27 02:53:17;;;;;;;3.22;2.55;;;14.10;99.90;;;;;;5035194;28;20090;-62
2023/07/27 02:56:03;;;;;;;5.25;3.13;;;14.10;99.90;;;;;;5022527;28;20029;-63
2023/07/27 02:58:38;;;;;;;3.10;2.47;;;14.10;99.90;;;;;;5036023;28;20066;-62
2023/07/27 03:01:04;;;;;;;2.55;2.03;;;14.10;99.90;;;;;;5036431;28;20031;-62
2023/07/27 03:03:30;;;;;;;2.33;1.95;;;14.10;99.90;;;;;;5038292;28;20036;-62
2023/07/27 03:06:05;;;;;;;2.90;2.05;;;14.10;99.90;;;;;;5038806;28;20840;-62
2023/07/27 03:08:32;;;;;;;4.15;2.50;;;14.10;99.90;;;;;;5036843;28;20091;-62
2023/07/27 03:11:04;;;;;;;3.30;2.30;;;14.10;99.90;;;;;;5036282;28;20043;-62
2023/07/27 03:13:31;;;;;;;3.40;2.50;;;14.10;99.90;;;;;;5028920;28;20091;-62
2023/07/27 03:15:59;;;;;;;4.45;2.83;;;14.10;99.90;;;;;;5055096;28;20029;-62
2023/07/27 03:18:25;;;;;;;4.03;2.60;;;14.10;99.90;;;;;;5039196;28;20052;-62
2023/07/27 03:20:51;;;;;;;3.17;2.53;;;14.00;99.90;;;;;;5054096;28;20144;-62
2023/07/27 03:23:17;;;;;;;2.90;2.60;;;14.00;99.90;;;;;;5056218;28;20032;-62
2023/07/27 03:25:43;;;;;;;3.17;2.28;;;14.00;99.90;;;;;;5052730;28;20029;-62
2023/07/27 03:28:08;;;;;;;2.50;2.30;;;14.00;99.90;;;;;;5053451;28;20033;-62
2023/07/27 03:30:35;;;;;;;2.33;2.10;;;14.00;99.90;;;;;;5039021;28;20067;-62
2023/07/27 03:33:03;;;;;;;3.22;2.50;;;14.00;99.90;;;;;;5053893;28;20963;-62
2023/07/27 03:35:28;;;;;;;2.50;2.25;;;14.00;99.90;;;;;;5039077;28;20032;-62
2023/07/27 03:37:54;;;;;;;3.47;1.95;;;14.00;99.90;;;;;;5055093;28;20039;-62
2023/07/27 03:40:20;;;;;;;3.42;2.35;;;14.00;99.90;;;;;;5038694;28;20064;-62
2023/07/27 03:42:46;;;;;;;5.15;2.63;;;14.00;99.90;;;;;;5036048;28;20834;-62
2023/07/27 03:45:14;;;;;;;3.05;2.75;;;14.00;99.90;;;;;;5053504;28;20124;-62
2023/07/27 03:47:41;;;;;;;4.00;2.50;;;13.90;99.90;;;;;;5038166;28;20086;-62
2023/07/27 03:50:07;;;;;;;3.40;2.55;;;14.00;99.90;;;;;;5054605;28;20436;-62
2023/07/27 03:52:33;;;;;;;2.85;2.08;;;14.00;99.90;;;;;;5055708;28;20028;-62
2023/07/27 03:55:00;;;;;;;3.95;2.70;;;13.90;99.90;;;;;;5036627;28;20037;-63
2023/07/27 03:57:26;;;;;;;4.60;2.38;;;13.90;99.90;;;;;;5037568;28;20033;-62
2023/07/27 03:59:56;;;;;;;2.55;2.20;;;13.90;99.90;;;;;;5036569;28;20055;-62
2023/07/27 04:02:24;;;;;;;2.60;2.40;;;13.90;99.90;;;;;;5036484;28;20679;-62
2023/07/27 04:04:51;;;;;;;3.28;2.35;;;13.90;99.90;;;;;;5053066;28;20048;-62
2023/07/27 04:07:18;;;;;;;4.18;2.40;;;13.80;99.90;;;;;;5055344;28;20037;-62
2023/07/27 04:09:44;;;;;;;2.53;2.25;;;13.80;99.90;;;;;;5053922;28;20044;-62
2023/07/27 04:12:10;;;;;;;2.78;2.20;;;13.80;99.90;;;;;;5055269;28;20047;-63
2023/07/27 04:14:36;;;;;;;3.92;2.50;;;13.80;99.90;;;;;;5054305;28;20040;-62
2023/07/27 04:17:02;;;;;;;3.90;2.10;;;13.80;99.90;;;;;;5055502;28;20114;-62
2023/07/27 04:19:27;;;;;;;2.50;2.05;;;13.80;99.90;;;;;;5036096;28;20082;-62
2023/07/27 04:21:53;;;;;;;3.20;2.13;;;13.80;99.90;;;;;;5034990;28;20028;-62
2023/07/27 04:24:19;;;;;;;3.08;2.33;;;13.80;99.90;;;;;;5037554;28;20060;-62
2023/07/27 04:26:45;;;;;;;2.65;2.28;;;13.80;99.90;;;;;;5035449;28;20033;-62
2023/07/27 04:29:11;;;;;;;6.03;2.53;;;13.90;99.90;;;;;;5034559;28;20040;-62
2023/07/27 04:31:36;;;;;;;2.95;2.58;;;13.90;99.90;;;;;;5035730;28;20040;-62
2023/07/27 04:34:02;;;;;;;2.63;2.42;;;14.00;99.90;;;;;;5054941;28;20036;-62
2023/07/27 04:36:28;;;;;;;3.53;2.97;;;14.00;99.90;;;;;;5036182;28;20044;-62
2023/07/27 04:38:54;;;;;;;3.53;2.88;;;14.10;99.90;;;;;;5052566;28;20029;-62
2023/07/27 04:41:19;;;;;;;3.53;2.85;;;14.10;99.90;;;;;;5055037;28;20039;-62
2023/07/27 04:43:45;;;;;;;3.28;2.83;;;14.20;99.90;;;;;;5035356;28;20032;-62
2023/07/27 04:46:11;;;;;;;3.83;2.83;;;14.20;99.90;;;;;;5052851;28;20043;-62
2023/07/27 04:48:37;;;;;;;4.00;2.60;;;14.20;99.90;;;;;;5035771;28;20569;-62
2023/07/27 04:51:03;;;;;;;3.05;2.60;;;14.30;99.90;;;;;;5035445;28;20593;-62
2023/07/27 04:53:28;;;;;;;4.95;2.47;;;14.40;99.90;;;;;;5053418;28;20068;-62
2023/07/27 04:55:54;;;;;;;3.35;2.50;;;14.50;99.90;;;;;;5033429;28;20043;-62
2023/07/27 04:58:20;;;;;;;3.97;2.50;;;14.50;99.90;;;;;;5028505;28;20126;-62
2023/07/27 05:00:55;;;;;;;5.13;2.78;;;14.60;99.90;;;;;;5035707;28;20040;-63
2023/07/27 05:03:21;;;;;;;4.97;2.70;;;14.80;99.90;;;;;;5055884;28;20047;-62
2023/07/27 05:05:47;;;;;;;3.78;2.53;;;14.80;99.90;;;;;;5052394;28;20040;-62
2023/07/27 05:08:13;;;;;;;6.57;2.58;;;14.90;99.90;;;;;;5055962;28;20412;-62
2023/07/27 05:10:40;;;;;;;3.53;2.40;;;15.00;99.90;;;;;;5052254;28;20551;-62
2023/07/27 05:13:08;;;;;;;3.15;2.50;;;15.20;99.90;;;;;;5055759;28;20124;-62
2023/07/27 05:15:35;;;;;;;4.75;2.80;;;15.20;99.90;;;;;;5048909;28;20052;-63
2023/07/27 05:18:01;;;;;;;3.42;2.65;;;15.40;99.90;;;;;;5034524;28;20033;-62
2023/07/27 05:20:26;;;;;;;5.93;2.60;;;15.50;99.90;;;;;;5056795;28;20056;-62
2023/07/27 05:22:52;;;;;;;4.22;2.20;;;15.60;99.90;;;;;;5056604;28;20047;-62
2023/07/27 05:25:18;;;;;;;3.78;2.25;;;15.60;99.90;;;;;;5059850;28;20036;-62
2023/07/27 05:27:43;;;;;;;3.78;2.30;;;15.80;99.90;;;;;;5056411;28;20509;-62
2023/07/27 05:30:10;;;;;;;3.85;2.50;;;15.80;99.90;;;;;;5042111;28;20092;-62
2023/07/27 05:32:37;;;;;;;4.35;2.50;;;15.90;99.90;;;;;;5055455;28;20028;-62
2023/07/27 05:35:03;;;;;;;2.80;2.33;;;15.90;99.90;;;;;;5045797;28;20102;-62
2023/07/27 05:37:29;;;;;;;3.17;2.38;;;16.00;99.90;;;;;;5059554;28;20028;-62
2023/07/27 05:39:55;;;;;;;3.25;2.38;;;16.00;99.90;;;;;;5056390;28;20068;-63
2023/07/27 05:42:21;;;;;;;2.90;2.33;;;16.10;99.90;;;;;;5058807;28;20029;-62
2023/07/27 05:44:46;;;;;;;3.67;2.10;;;16.10;99.90;;;;;;5056364;28;20029;-62
2023/07/27 05:47:13;;;;;;;3.85;2.40;;;16.10;99.90;;;;;;5059370;28;20028;-62
2023/07/27 05:49:39;;;;;;;2.63;2.22;;;16.20;99.90;;;;;;5055999;28;20388;-62
2023/07/27 05:52:06;;;;;;;4.65;3.03;;;16.20;99.90;;;;;;5056201;28;20029;-62
2023/07/27 05:54:32;;;;;;;3.72;2.17;;;16.10;99.90;;;;;;5058970;28;20038;-62
2023/07/27 05:56:57;;;;;;;3.65;2.58;;;16.10;99.90;;;;;;5056122;28;20033;-62
2023/07/27 05:59:23;;;;;;;4.10;2.53;;;16.20;99.90;;;;;;5058820;28;20028;-62
2023/07/27 06:01:49;;;;;;;3.42;2.58;;;16.20;99.90;;;;;;5056065;28;20489;-62
2023/07/27 06:04:16;;;;;;;4.05;2.05;;;16.30;99.90;;;;;;5057556;28;20024;-62
2023/07/27 06:06:45;;;;;;;5.25;2.28;;;16.50;99.90;;;;;;5058202;28;20048;-62
2023/07/27 06:09:10;;;;;;;2.83;2.22;;;16.40;99.90;;;;;;5056421;28;20041;-63
2023/07/27 06:11:37;;;;;;;2.72;1.90;;;16.50;99.90;;;;;;5057981;28;20475;-62
2023/07/27 06:14:03;;;;;;;3.55;2.20;;;16.60;99.90;;;;;;5053624;28;20029;-62
2023/07/27 06:16:28;;;;;;;2.47;2.22;;;16.80;99.90;;;;;;5057991;28;20035;-62
2023/07/27 06:18:54;;;;;;;3.40;2.33;;;16.80;99.90;;;;;;5055086;28;20016;-62
2023/07/27 06:21:20;;;;;;;4.10;2.50;;;16.90;99.90;;;;;;5057644;28;20457;-62
2023/07/27 06:23:45;;;;;;;3.83;2.20;;;17.10;99.90;;;;;;5037720;28;20041;-62
2023/07/27 06:26:11;;;;;;;3.65;2.60;;;17.10;99.90;;;;;;5055075;28;20037;-63
2023/07/27 06:28:37;;;;;;;3.67;2.30;;;17.10;99.90;;;;;;5057711;28;20118;-62
2023/07/27 06:31:03;;;;;;;5.22;2.67;;;17.00;99.90;;;;;;5052653;28;20040;-62
2023/07/27 06:33:28;;;;;;;5.88;2.47;;;17.10;99.90;;;;;;5057548;28;20063;-62
2023/07/27 06:35:54;;;;;;;3.67;2.47;;;17.00;99.90;;;;;;5055942;28;20021;-62
2023/07/27 06:38:20;;;;;;;4.97;2.90;;;17.00;99.90;;;;;;5058154;28;20052;-62
2023/07/27 06:40:46;;;;;;;3.95;2.90;;;17.00;99.80;;;;;;5055185;28;20021;-62
2023/07/27 06:43:12;;;;;;;3.70;2.83;;;17.00;99.80;;;;;;5055722;28;20120;-62
2023/07/27 06:45:38;;;;;;;3.90;2.97;;;16.90;99.90;;;;;;5057747;28;20488;-62
2023/07/27 06:48:04;;;;;;;5.00;2.92;;;16.90;99.90;;;;;;5055696;28;20091;-63
2023/07/27 06:50:30;;;;;;;3.72;3.13;;;17.00;99.90;;;;;;5054182;28;20485;-62
2023/07/27 06:52:56;;;;;;;5.53;2.95;;;17.10;99.90;;;;;;5055208;28;20100;-62
2023/07/27 06:55:22;;;;;;;4.43;3.35;;;17.20;99.90;;;;;;5057515;28;20399;-62
2023/07/27 06:57:47;;;;;;;4.25;3.25;;;17.30;99.60;;;;;;5055406;28;20887;-62
2023/07/27 07:00:14;;;;;;;6.18;2.85;;;17.40;99.40;;;;;;5054740;28;20520;-62
2023/07/27 07:02:39;;;;;;;8.35;2.90;;;17.50;99.50;;;;;;5056964;28;20039;-62
2023/07/27 07:05:06;;;;;;;5.20;3.45;;;17.70;99.00;;;;;;5052695;28;20025;-62
2023/07/27 07:07:32;;;;;;;5.28;3.08;;;17.80;98.70;;;;;;5056904;28;20040;-62
2023/07/27 07:09:59;;;;;;;3.35;2.38;;;17.90;98.90;;;;;;5055403;28;20029;-62
2023/07/27 07:12:24;;;;;;;3.55;2.42;;;18.00;99.00;;;;;;5056614;28;20782;-62
2023/07/27 07:14:50;;;;;;;4.82;2.90;;;17.90;98.60;;;;;;5055265;28;20083;-62
2023/07/27 07:17:16;;;;;;;4.18;2.60;;;17.80;99.20;;;;;;5057017;28;20035;-62
2023/07/27 07:19:42;;;;;;;3.65;2.80;;;17.80;99.50;;;;;;5054066;28;20119;-63
2023/07/27 07:22:08;;;;;;;3.95;2.85;;;17.80;99.40;;;;;;5055263;28;20482;-62
2023/07/27 07:24:34;;;;;;;4.47;2.95;;;17.80;99.60;;;;;;5056688;28;20074;-62
2023/07/27 07:27:00;;;;;;;3.40;2.60;;;17.80;99.70;;;;;;5055357;28;20029;-62
2023/07/27 07:29:26;;;;;;;3.30;2.78;;;17.80;99.70;;;;;;5056271;28;20040;-63
2023/07/27 07:31:52;;;;;;;4.60;2.70;;;17.70;99.90;;;;;;5054998;28;20036;-62
2023/07/27 07:34:18;;;;;;;4.07;2.83;;;17.70;99.90;;;;;;5055949;28;20385;-62
2023/07/27 07:36:44;;;;;;;4.00;2.83;;;17.80;99.90;;;;;;5053921;28;20036;-62
2023/07/27 07:39:10;;;;;;;4.07;3.30;;;17.80;99.90;;;;;;5055213;28;20036;-62
2023/07/27 07:41:35;;;;;;;5.10;3.25;;;17.90;99.90;;;;;;5056049;28;20137;-62
2023/07/27 07:44:01;;;;;;;4.03;2.70;;;17.90;99.90;;;;;;5053679;28;20036;-62
2023/07/27 07:46:27;;;;;;;3.63;2.80;;;18.00;99.90;;;;;;5056280;28;20374;-62
2023/07/27 07:48:53;;;;;;;4.25;2.47;;;17.80;99.90;;;;;;5036637;28;20448;-62
2023/07/27 07:51:19;;;;;;;6.20;2.75;;;17.90;99.90;;;;;;5055967;28;20033;-62
2023/07/27 07:53:44;;;;;;;3.35;2.50;;;17.90;99.90;;;;;;5053390;28;20032;-63
2023/07/27 07:56:15;;;;;;;3.90;2.95;;;17.90;99.90;;;;;;5054993;28;20056;-62
2023/07/27 07:58:41;;;;;;;5.13;3.28;;;17.80;99.90;;;;;;5052251;28;20094;-62
2023/07/27 08:01:07;;;;;;;3.42;2.70;;;17.70;99.90;;;;;;5054712;28;20505;-62
2023/07/27 08:03:33;;;;;;;5.10;2.78;;;17.70;99.90;;;;;;5055426;28;20032;-62
2023/07/27 08:05:59;;;;;;;4.95;2.40;;;17.70;99.90;;;;;;5036900;28;20043;-62
2023/07/27 08:08:25;;;;;;;5.60;2.83;;;17.80;99.90;;;;;;5055156;28;20051;-62
2023/07/27 08:10:51;;;;;;;4.05;2.67;;;17.80;99.90;;;;;;5053206;28;20032;-62
2023/07/27 08:13:17;;;;;;;4.10;2.72;;;18.00;99.90;;;;;;5050672;28;20036;-63
2023/07/27 08:15:53;;;;;;;4.60;2.50;;;17.90;99.90;;;;;;5036797;28;20044;-62
2023/07/27 08:18:18;;;;;;;;;;;17.80;99.80;;;;;;5056662;28;20059;-62
2023/07/27 08:20:44;;;;;;;6.90;2.37;;;17.80;99.80;;;;;;5053622;28;20440;-62
2023/07/27 08:23:10;;;;;;;4.28;2.25;;;17.80;99.90;;;;;;5056074;28;20673;-62
2023/07/27 08:25:37;;;;;;;4.20;2.42;;;17.80;99.90;;;;;;5053406;28;20032;-62
2023/07/27 08:28:03;;;;;;;3.72;2.60;;;17.80;99.90;;;;;;5055856;28;20385;-62
2023/07/27 08:30:29;;;;;;;7.38;2.58;;;18.00;99.80;;;;;;5052827;28;20039;-62
2023/07/27 08:32:54;;;;;;;4.07;2.70;;;18.00;99.90;;;;;;5052618;28;20043;-62
2023/07/27 08:35:20;;;;;;;4.47;2.97;;;17.90;99.90;;;;;;5056109;28;20032;-63
2023/07/27 08:37:46;;;;;;;5.05;3.47;;;17.90;99.90;;;;;;5053675;28;20033;-62
2023/07/27 08:40:12;;;;;;;3.75;2.83;;;17.80;99.90;;;;;;5056106;28;20047;-62
2023/07/27 08:42:38;;;;;;;4.55;2.88;;;17.70;99.90;;;;;;5050704;28;20569;-62
2023/07/27 08:45:05;;;;;;;6.38;2.85;;;17.60;99.90;;;;;;5055972;28;20060;-62
2023/07/27 08:47:30;;;;;;;4.18;2.92;;;17.50;99.90;;;;;;5052640;28;20408;-62
2023/07/27 08:49:56;;;;;;;4.80;2.88;;;17.60;99.90;;;;;;5034884;28;20032;-62
2023/07/27 08:52:24;;;;;;;4.00;2.78;;;17.70;99.90;;;;;;5055805;28;20036;-63
2023/07/27 08:54:50;;;;;;;3.22;2.50;;;17.60;99.90;;;;;;5050994;28;20033;-62
2023/07/27 08:57:16;;;;;;;5.53;2.70;;;17.60;99.90;;;;;;5056169;28;20032;-62
2023/07/27 08:59:42;;;;;;;4.72;3.00;;;17.50;99.90;;;;;;5052270;28;20493;-62
2023/07/27 09:02:08;;;;;;;5.28;3.00;;;17.50;99.90;;;;;;5058021;28;20519;-62
2023/07/27 09:04:34;;;;;;;3.33;2.40;;;17.60;99.90;;;;;;5052209;28;20043;-62
2023/07/27 09:07:08;;;;;;;3.70;2.70;;;17.70;99.90;;;;;;5034853;28;20035;-63
2023/07/27 09:09:34;;;;;;;3.90;2.92;;;17.70;99.90;;;;;;5049940;28;20052;-63
2023/07/27 09:12:03;;;;;;;8.13;3.15;;;17.60;99.90;;;;;;5052798;28;20029;-62
2023/07/27 09:14:35;;;;;;;4.22;2.60;;;17.60;99.90;;;;;;5052956;28;20035;-62
2023/07/27 09:17:01;;;;;;;4.07;2.97;;;17.60;99.90;;;;;;5054770;28;20440;-62
2023/07/27 09:19:32;;;;;;;4.80;3.05;;;17.60;99.90;;;;;;5053975;28;20025;-62
2023/07/27 09:21:58;;;;;;;5.93;3.83;;;17.80;99.90;;;;;;5051772;28;20029;-61
2023/07/27 09:24:23;;;;;;;3.45;2.42;;;18.10;99.90;;;;;;5055195;28;20029;-61
2023/07/27 09:26:52;;;;;;;6.53;2.47;;;18.30;99.70;;;;;;5048379;28;20110;-61
2023/07/27 09:29:20;;;;;;;4.38;2.60;;;18.40;99.80;;;;;;5054549;28;20036;-62
2023/07/27 09:31:48;;;;;;;3.60;2.55;;;18.40;98.90;;;;;;5052426;28;20065;-62
2023/07/27 09:34:14;;;;;;;4.10;2.60;;;18.50;99.30;;;;;;5055723;28;20029;-62
2023/07/27 09:36:41;;;;;;;6.78;2.63;;;18.60;99.60;;;;;;5030676;28;20037;-62
2023/07/27 09:39:07;;;;;;;6.43;2.70;;;18.70;99.20;;;;;;5051749;28;20238;-62
2023/07/27 09:41:33;;;;;;;3.40;2.33;;;18.80;98.60;;;;;;5051807;28;20117;-62
2023/07/27 09:43:59;;;;;;;4.43;2.17;;;18.80;98.40;;;;;;5051448;28;20115;-62
2023/07/27 09:46:25;;;;;;;5.20;2.38;;;18.80;98.90;;;;;;5055426;28;20471;-62
2023/07/27 09:48:51;;;;;;;4.13;2.30;;;19.10;99.00;;;;;;5051779;28;20041;-62
2023/07/27 09:51:17;;;;;;;6.70;2.30;;;19.20;98.40;;;;;;5054888;28;20055;-62
2023/07/27 09:53:44;;;;;;;5.68;2.47;;;19.20;98.10;;;;;;5051547;28;20408;-62
2023/07/27 09:56:15;;;;;;;2.85;2.20;;;19.20;98.40;;;;;;5055002;28;20047;-62
2023/07/27 09:58:46;;;;;;;3.10;2.40;;;19.30;98.10;;;;;;5046583;28;20040;-62
2023/07/27 10:01:12;;;;;;;3.28;2.50;;;19.30;98.10;;;;;;5053142;28;20085;-62
2023/07/27 10:03:38;;;;;;;3.08;2.55;;;19.30;98.30;;;;;;5052052;28;20045;-62
2023/07/27 10:06:05;;;;;;;4.18;2.45;;;19.30;98.00;;;;;;5051842;28;20040;-62
2023/07/27 10:08:33;;;;;;;6.68;3.20;;;19.40;98.00;;;;;;5056874;28;20101;-62
2023/07/27 10:11:01;;;;;;;3.33;2.70;;;19.40;98.20;;;;;;5057712;28;20087;-62
2023/07/27 10:13:27;;;;;;;2.40;2.10;;;19.60;97.80;;;;;;5056340;28;20029;-62
2023/07/27 10:15:55;;;;;;;4.13;2.55;;;19.70;97.90;;;;;;5055007;28;20549;-63
2023/07/27 10:18:28;;;;;;;4.13;2.40;;;19.80;97.60;;;;;;5057770;28;20024;-62
2023/07/27 10:21:24;;;;;;;2.33;1.95;;;19.90;97.20;;;;;;5054880;28;20052;-62
2023/07/27 10:24:03;;;;;;;5.40;2.47;;;20.00;97.00;;;;;;5056442;28;20037;-62
2023/07/27 10:26:51;;;;;;;4.53;2.15;;;20.00;96.90;;;;;;5054684;28;20088;-62
2023/07/27 10:29:19;;;;;;;5.38;2.30;;;20.00;97.40;;;;;;5057455;28;20444;-62
2023/07/27 10:32:00;;;;;;;5.10;2.80;;;20.00;97.50;;;;;;5055874;28;20059;-62
2023/07/27 10:34:27;;;;;;;3.15;2.30;;;20.10;97.10;;;;;;5055123;28;20475;-62
2023/07/27 10:37:01;;;;;;;3.28;2.42;;;20.20;97.30;;;;;;5055120;28;20059;-62
2023/07/27 10:39:41;;;;;;;5.05;2.60;;;20.10;97.10;;;;;;5049857;28;20021;-62
2023/07/27 10:42:08;;;;;;;2.95;2.25;;;20.10;97.20;;;;;;5054835;28;20037;-62
2023/07/27 10:44:49;;;;;;;2.55;1.98;;;20.20;97.30;;;;;;5056219;28;20033;-62
2023/07/27 10:47:20;;;;;;;4.97;2.88;;;20.00;97.00;;;;;;5054331;28;20041;-62
2023/07/27 10:49:48;;;;;;;3.65;2.38;;;19.90;98.00;;;;;;5053311;28;20037;-62
2023/07/27 10:52:17;;;;;;;2.72;2.42;;;19.90;98.00;;;;;;5053124;28;20032;-62
2023/07/27 10:54:44;;;;;;;2.45;2.13;;;20.00;98.40;;;;;;5059081;28;20086;-62
2023/07/27 10:57:12;;;;;;;3.78;2.50;;;20.00;98.20;;;;;;5056671;28;20756;-62
2023/07/27 10:59:40;;;;;;;5.30;2.47;;;20.10;98.60;;;;;;5054849;28;20032;-62
2023/07/27 11:02:13;;;;;;;4.32;2.63;;;20.00;98.40;;;;;;5056729;28;20021;-62
2023/07/27 11:04:40;;;;;;;5.68;2.10;;;19.90;98.70;;;;;;5054603;28;20051;-62
2023/07/27 11:07:06;;;;;;;4.00;2.30;;;19.90;99.20;;;;;;5057268;28;20036;-62
2023/07/27 11:09:31;;;;;;;4.18;2.38;;;20.00;99.50;;;;;;5055534;28;20036;-62
2023/07/27 11:12:01;;;;;;;6.78;3.55;;;20.10;99.60;;;;;;5053432;28;20068;-62
2023/07/27 11:14:27;;;;;;;5.38;2.70;;;20.20;99.10;;;;;;5052069;28;20025;-62
2023/07/27 11:16:53;;;;;;;5.45;2.47;;;20.30;98.90;;;;;;5053429;28;20052;-62
2023/07/27 11:19:19;;;;;;;3.55;2.63;;;20.40;99.00;;;;;;5057104;28;20080;-62
2023/07/27 11:21:44;;;;;;;5.63;2.70;;;20.40;99.20;;;;;;5053203;28;20139;-62
2023/07/27 11:24:11;;;;;;;3.25;2.63;;;20.50;98.10;;;;;;5057198;28;20147;-62
2023/07/27 11:26:37;;;;;;;6.22;3.15;;;20.50;98.50;;;;;;5053715;28;20036;-62
2023/07/27 11:29:05;;;;;;;2.85;2.30;;;20.50;98.90;;;;;;5045281;28;20032;-63
2023/07/27 11:31:31;;;;;;;5.40;2.53;;;20.50;99.00;;;;;;5056718;28;20181;-62
2023/07/27 11:33:58;;;;;;;3.70;2.38;;;20.60;98.70;;;;;;5054937;28;20114;-62
2023/07/27 11:36:31;;;;;;;3.78;2.38;;;20.70;98.80;;;;;;5057721;28;20739;-63
2023/07/27 11:38:58;;;;;;;6.45;2.47;;;20.70;98.10;;;;;;5056753;28;20032;-63
2023/07/27 11:41:29;;;;;;;3.47;2.72;;;20.70;98.00;;;;;;5056730;28;20036;-63
2023/07/27 11:43:57;;;;;;;2.92;2.55;;;20.70;98.50;;;;;;5054059;28;20033;-62
2023/07/27 11:46:26;;;;;;;3.88;2.90;;;20.70;97.60;;;;;;5055671;28;20032;-63
2023/07/27 11:48:52;;;;;;;6.93;3.15;;;20.70;96.90;;;;;;5053295;28;20037;-62
2023/07/27 11:51:18;;;;;;;3.88;2.35;;;20.60;97.80;;;;;;5052437;28;20052;-63
2023/07/27 11:53:45;;;;;;;3.08;2.47;;;20.70;97.90;;;;;;5053272;28;20090;-62
2023/07/27 11:56:12;;;;;;;6.40;2.95;;;20.80;98.00;;;;;;5056189;28;20036;-63
2023/07/27 11:58:38;;;;;;;3.42;2.65;;;20.90;97.90;;;;;;5032928;28;20040;-62
2023/07/27 12:01:04;;;;;;;5.32;2.45;;;21.10;97.30;;;;;;5055575;28;20028;-62
2023/07/27 12:03:33;;;;;;;6.57;2.72;;;21.20;95.80;;;;;;5052754;28;20042;-62
2023/07/27 12:06:03;;;;;;;6.00;2.22;;;21.30;96.10;;;;;;5052213;28;20616;-62
2023/07/27 12:08:30;;;;;;;4.82;2.33;;;21.30;96.30;;;;;;5055899;28;20135;-62
2023/07/27 12:11:01;;;;;;;3.65;2.00;;;21.30;95.90;;;;;;5050234;28;20119;-63
2023/07/27 12:13:27;;;;;;;4.50;3.05;;;21.20;95.70;;;;;;5054943;28;20449;-62
2023/07/27 12:15:57;;;;;;;4.40;2.80;;;21.00;96.50;;;;;;5054384;28;20049;-62
2023/07/27 12:18:26;;;;;;;4.45;3.13;;;20.90;96.70;;;;;;5054248;28;20816;-62
2023/07/27 12:20:53;;;;;;;4.97;2.80;;;20.90;96.60;;;;;;5052412;28;20028;-63
2023/07/27 12:23:20;;;;;;;3.67;3.05;;;20.90;97.20;;;;;;5055306;28;20040;-62
2023/07/27 12:25:46;;;;;;;3.78;2.35;;;20.90;97.40;;;;;;5053815;28;20041;-63
2023/07/27 12:28:11;;;;;;;5.43;2.58;;;20.90;97.20;;;;;;5054232;28;20844;-62
2023/07/27 12:30:37;;;;;;;3.88;3.00;;;20.90;97.90;;;;;;5053270;28;20033;-62
2023/07/27 12:33:03;;;;;;;4.22;2.85;;;21.10;99.00;;;;;;5055393;28;20687;-63
2023/07/27 12:35:29;;;;;;;6.53;3.08;;;21.00;97.30;;;;;;5053775;28;20056;-63
2023/07/27 12:37:55;;;;;;;6.55;3.20;;;21.00;97.70;;;;;;5052825;28;20058;-62
2023/07/27 12:40:21;;;;;;;6.47;3.00;;;20.90;97.10;;;;;;5055324;28;20040;-63
2023/07/27 12:42:47;;;;;;;6.85;3.13;;;20.80;97.30;;;;;;5052985;28;20089;-63
2023/07/27 12:45:13;;;;;;;4.93;2.83;;;20.70;98.00;;;;;;5053099;28;20047;-63
2023/07/27 12:47:42;;;;;;;5.47;2.80;;;20.50;98.20;;;;;;5050810;28;20028;-63
2023/07/27 12:50:09;;;;;;;5.80;3.30;;;20.30;98.50;;;;;;5054458;28;20538;-63